CMA CGM Africa Three — C6YS8 — position and weather

sailwx.info

Track history (hours):
 
Tides and Currents Weather Stations Pressure Air Temp Water Temp Dewpoint Dewpoint Depression Visibility Wind Speed Wind Dir Waves Ship Positions

CMA CGM Africa Three

Last reported at 2018-Aug-19 15:00 UTC. Time now 2018-Aug-19 15:19 UTC.
Position N 51°02' E 002°10'.

Length 228 m; draft 8.6 m.

Type: Ship (hazmat cat A). MMSI: 311044200.

Date/timePositionNaut miles runAvg speedWind from/ knotsBaromVisibWave heightAir tempDewpointWater temp
2018-Aug-19 15:00N 51°02' E 002°10'612.9
2018-Aug-19 14:30N 51°02' E 002°00'713.8
2018-Aug-19 14:01N 51°02' E 001°49'3 5.7
2018-Aug-19 13:31N 51°02' E 001°45'5 9.5
2018-Aug-19 13:01N 50°60' E 001°38'611.6
2018-Aug-19 12:30N 50°55' E 001°32'611.6
2018-Aug-19 12:00N 50°51' E 001°26'611.1
2018-Aug-19 11:30N 50°45' E 001°24'611.2
2018-Aug-19 11:00N 50°40' E 001°19'611.5
2018-Aug-19 10:31N 50°36' E 001°13'611.7
2018-Aug-19 10:00N 50°32' E 001°07'611.6
2018-Aug-19 09:30N 50°29' E 000°59'611.8
2018-Aug-19 09:00N 50°27' E 000°50'611.8
2018-Aug-19 08:30N 50°25' E 000°41'611.8
2018-Aug-19 08:01N 50°24' E 000°33'611.7
2018-Aug-19 07:30N 50°22' E 000°23'611.7
2018-Aug-19 07:00N 50°21' E 000°15'611.7
2018-Aug-19 06:29N 50°19' E 000°06'611.9
2018-Aug-19 06:00N 50°18' W 000°03'611.9
2018-Aug-19 05:31N 50°16' W 000°12'612.1
2018-Aug-19 05:00N 50°14' W 000°21'712.3
2018-Aug-19 04:26N 50°13' W 000°32'512.8
2018-Aug-19 04:01N 50°11' W 000°40'713.3
2018-Aug-19 03:30N 50°10' W 000°50'713.7
2018-Aug-19 03:00N 50°08' W 001°00'714.1
2018-Aug-19 02:30N 50°06' W 001°11'814.4
2018-Aug-19 01:59N 50°04' W 001°23'714.8
2018-Aug-19 01:30N 50°02' W 001°33'714.9
2018-Aug-19 01:00N 50°00' W 001°44'714.9
2018-Aug-19 00:30N 49°58' W 001°56'714.7
2018-Aug-19 00:00N 49°57' W 002°07'714.0
2018-Aug-18 23:30N 49°55' W 002°17'713.5
2018-Aug-18 23:01N 49°53' W 002°27'713.1
2018-Aug-18 22:29N 49°51' W 002°37'612.9
2018-Aug-18 22:00N 49°49' W 002°46'713.0
2018-Aug-18 21:30N 49°47' W 002°56'613.1
2018-Aug-18 21:00N 49°43' W 003°04'712.9
2018-Aug-18 20:28N 49°39' W 003°13'713.0
2018-Aug-18 19:57N 49°36' W 003°23'613.3
2018-Aug-18 19:30N 49°33' W 003°31'712.9
2018-Aug-18 19:00N 49°30' W 003°40'812.9
2018-Aug-18 18:23N 49°27' W 003°50'613.0
2018-Aug-18 17:57N 49°24' W 003°58'613.1
2018-Aug-18 17:30N 49°21' W 004°06'913.2
2018-Aug-18 16:51N 49°17' W 004°17'513.2
2018-Aug-18 16:28N 49°14' W 004°24'813.1
2018-Aug-18 15:52N 49°10' W 004°34'612.8
2018-Aug-18 15:26N 49°07' W 004°42'612.9
2018-Aug-18 15:00N 49°04' W 004°49'712.8
2018-Aug-18 14:29N 49°01' W 004°57'613.1
2018-Aug-18 14:00N 48°58' W 005°06'713.0
2018-Aug-18 13:30N 48°55' W 005°14'612.5
2018-Aug-18 13:00N 48°52' W 005°23'712.8
2018-Aug-18 12:29N 48°48' W 005°31'1112.3
2018-Aug-18 11:37N 48°40' W 005°42'1712.5
2018-Aug-18 10:17N 48°25' W 005°52'412.7
2018-Aug-18 09:58N 48°21' W 005°55'713.0
2018-Aug-18 09:28N 48°15' W 005°59'1012.8
2018-Aug-18 08:43N 48°07' W 006°06'512.7
2018-Aug-18 08:19N 48°02' W 006°10'1713.0
2018-Aug-18 06:59N 47°47' W 006°23'713.0
2018-Aug-18 06:27N 47°41' W 006°28'613.2
2018-Aug-18 05:58N 47°36' W 006°32'51313.2
2018-Aug-16 15:12N 39°23' W 009°51'313.1
2018-Aug-16 15:00N 39°21' W 009°51'713.6
2018-Aug-16 14:30N 39°14' W 009°51'713.5
2018-Aug-16 14:00N 39°07' W 009°51'713.4
2018-Aug-16 13:30N 39°00' W 009°51'713.4
2018-Aug-16 13:00N 38°54' W 009°51'713.0
2018-Aug-16 12:30N 38°47' W 009°51'713.5
2018-Aug-16 12:00N 38°41' W 009°50'713.2
2018-Aug-16 11:30N 38°34' W 009°49'714.0
2018-Aug-16 11:00N 38°27' W 009°46'713.5
2018-Aug-16 10:30N 38°21' W 009°44'713.6
2018-Aug-16 10:00N 38°14' W 009°42'714.0
2018-Aug-16 09:31N 38°07' W 009°40'713.9
2018-Aug-16 09:00N 38°01' W 009°37'713.5
2018-Aug-16 08:30N 37°54' W 009°35'713.4
2018-Aug-16 08:00N 37°48' W 009°34'713.5
2018-Aug-16 07:30N 37°41' W 009°32'713.7
2018-Aug-16 06:58N 37°34' W 009°30'713.8
2018-Aug-16 06:29N 37°27' W 009°28'713.5
2018-Aug-16 06:00N 37°21' W 009°27'613.2
2018-Aug-16 05:30N 37°15' W 009°25'713.6
2018-Aug-16 05:00N 37°08' W 009°23'713.9
2018-Aug-16 04:30N 37°01' W 009°21'713.6
2018-Aug-16 04:00N 36°55' W 009°19'713.6
2018-Aug-16 03:28N 36°49' W 009°13'713.2
2018-Aug-16 02:58N 36°44' W 009°07'613.3
2018-Aug-16 02:30N 36°43' W 008°60'713.4
2018-Aug-16 02:00N 36°40' W 008°52'713.2
2018-Aug-16 01:30N 36°38' W 008°44'713.6
2018-Aug-16 01:00N 36°36' W 008°36'714.0
2018-Aug-16 00:30N 36°34' W 008°28'914.0
2018-Aug-15 23:54N 36°31' W 008°18'1613.9
2018-Aug-15 22:43N 36°26' W 007°59'1213.9
2018-Aug-15 21:52N 36°23' W 007°44'613.8
2018-Aug-15 21:27N 36°22' W 007°37'713.9
2018-Aug-15 20:56N 36°20' W 007°29'7613.4
2018-Aug-15 15:18N 35°57' W 005°59'413.6
2018-Aug-15 15:01N 35°57' W 005°54'26 3.3
2018-Aug-15 07:13N 36°08' W 005°25'0 0.0
2018-Aug-15 06:58N 36°08' W 005°25'0 0.0
2018-Aug-15 06:27N 36°08' W 005°25'0 0.0
2018-Aug-15 06:00N 36°08' W 005°25'0 0.0
2018-Aug-15 05:27N 36°08' W 005°25'0 0.0
2018-Aug-15 05:00N 36°08' W 005°25'0 0.0
2018-Aug-15 04:30N 36°08' W 005°25'0 0.0
2018-Aug-15 03:59N 36°08' W 005°25'0 0.0
2018-Aug-15 03:29N 36°08' W 005°25'0 0.0
2018-Aug-15 03:00N 36°08' W 005°25'0 0.0
2018-Aug-15 02:29N 36°08' W 005°25'0 0.0
2018-Aug-15 01:59N 36°08' W 005°25'0 0.0
2018-Aug-15 01:28N 36°08' W 005°25'0 0.0
2018-Aug-15 01:00N 36°08' W 005°25'0 0.0
2018-Aug-15 00:29N 36°08' W 005°25'0 0.0
2018-Aug-15 00:00N 36°08' W 005°25'1 1.9
2018-Aug-14 23:31N 36°08' W 005°25'2 3.5
2018-Aug-14 23:00N 36°07' W 005°24'4 6.5
2018-Aug-14 22:26N 36°03' W 005°23'512.5
2018-Aug-14 22:01N 35°58' W 005°26'815.7
2018-Aug-14 21:30N 35°55' W 005°35'1014.8
2018-Aug-14 20:50N 35°53' W 005°46'2115.0
2018-Aug-14 19:26N 35°44' W 006°11'1515.9
2018-Aug-14 18:30N 35°34' W 006°24'915.6
2018-Aug-14 17:56N 35°29' W 006°32'2215.7
2018-Aug-14 16:30N 35°13' W 006°52'815.4
2018-Aug-14 15:58N 35°07' W 006°59'21716.3
2018-Aug-14 02:39N 32°33' W 010°02'216.6
2018-Aug-14 02:30N 32°31' W 010°04'7816.5
2018-Aug-13 21:47N 31°30' W 011°01'516.9
2018-Aug-13 21:30N 31°26' W 011°03'917.1
2018-Aug-13 21:00N 31°18' W 011°08'917.0
2018-Aug-13 20:30N 31°11' W 011°13'917.1
2018-Aug-13 20:00N 31°04' W 011°18'1416.0
2018-Aug-13 19:09N 30°52' W 011°27'10517.1
2018-Aug-13 13:03N 29°24' W 012°31'117.5
2018-Aug-13 13:00N 29°23' W 012°32'917.3
2018-Aug-13 12:30N 29°16' W 012°37'917.1
2018-Aug-13 12:00N 29°08' W 012°42'816.9
2018-Aug-13 11:30N 29°01' W 012°47'1516.8
2018-Aug-13 10:36N 28°48' W 012°56'217.3
2018-Aug-13 10:30N 28°47' W 012°57'916.9
2018-Aug-13 09:59N 28°39' W 013°02'1316.7
2018-Aug-13 09:13N 28°29' W 013°10'417.1
2018-Aug-13 09:00N 28°26' W 013°12'917.4
2018-Aug-13 08:30N 28°18' W 013°17'817.1
2018-Aug-13 08:00N 28°11' W 013°22'1016.7
2018-Aug-13 07:25N 28°02' W 013°28'716.3
2018-Aug-13 07:00N 27°57' W 013°33'816.6
2018-Aug-13 06:30N 27°51' W 013°40'816.5
2018-Aug-13 06:00N 27°45' W 013°46'816.8
2018-Aug-13 05:30N 27°40' W 013°53'816.6
2018-Aug-13 05:00N 27°34' W 013°60'816.9
2018-Aug-13 04:30N 27°28' W 014°06'816.9
2018-Aug-13 04:00N 27°21' W 014°13'816.7
2018-Aug-13 03:30N 27°16' W 014°20'816.7
2018-Aug-13 03:00N 27°10' W 014°26'816.9
2018-Aug-13 02:30N 27°04' W 014°33'816.9
2018-Aug-13 02:00N 26°58' W 014°39'917.0
2018-Aug-13 01:30N 26°52' W 014°46'916.9
2018-Aug-13 00:59N 26°45' W 014°53'  
Track history (hours):
 
Tides and Currents Weather Stations Pressure Air Temp Water Temp Dewpoint Dewpoint Depression Visibility Wind Speed Wind Dir Waves Ship Positions

CMA CGM Africa Three

Last reported at 2018-Aug-19 15:00 UTC. Time now 2018-Aug-19 15:19 UTC.
Position N 51°02' E 002°10'.

Length 228 m; draft 8.6 m.

Type: Ship (hazmat cat A). MMSI: 311044200.

Date/timePositionNaut miles runAvg speedWind from/ knotsBaromVisibWave heightAir tempDewpointWater temp
2018-Aug-19 15:00N 51°02' E 002°10'612.9
2018-Aug-19 14:30N 51°02' E 002°00'713.8
2018-Aug-19 14:01N 51°02' E 001°49'3 5.7
2018-Aug-19 13:31N 51°02' E 001°45'5 9.5
2018-Aug-19 13:01N 50°60' E 001°38'611.6
2018-Aug-19 12:30N 50°55' E 001°32'611.6
2018-Aug-19 12:00N 50°51' E 001°26'611.1
2018-Aug-19 11:30N 50°45' E 001°24'611.2
2018-Aug-19 11:00N 50°40' E 001°19'611.5
2018-Aug-19 10:31N 50°36' E 001°13'611.7
2018-Aug-19 10:00N 50°32' E 001°07'611.6
2018-Aug-19 09:30N 50°29' E 000°59'611.8
2018-Aug-19 09:00N 50°27' E 000°50'611.8
2018-Aug-19 08:30N 50°25' E 000°41'611.8
2018-Aug-19 08:01N 50°24' E 000°33'611.7
2018-Aug-19 07:30N 50°22' E 000°23'611.7
2018-Aug-19 07:00N 50°21' E 000°15'611.7
2018-Aug-19 06:29N 50°19' E 000°06'611.9
2018-Aug-19 06:00N 50°18' W 000°03'611.9
2018-Aug-19 05:31N 50°16' W 000°12'612.1
2018-Aug-19 05:00N 50°14' W 000°21'712.3
2018-Aug-19 04:26N 50°13' W 000°32'512.8
2018-Aug-19 04:01N 50°11' W 000°40'713.3
2018-Aug-19 03:30N 50°10' W 000°50'713.7
2018-Aug-19 03:00N 50°08' W 001°00'714.1
2018-Aug-19 02:30N 50°06' W 001°11'814.4
2018-Aug-19 01:59N 50°04' W 001°23'714.8
2018-Aug-19 01:30N 50°02' W 001°33'714.9
2018-Aug-19 01:00N 50°00' W 001°44'714.9
2018-Aug-19 00:30N 49°58' W 001°56'714.7
2018-Aug-19 00:00N 49°57' W 002°07'714.0
2018-Aug-18 23:30N 49°55' W 002°17'713.5
2018-Aug-18 23:01N 49°53' W 002°27'713.1
2018-Aug-18 22:29N 49°51' W 002°37'612.9
2018-Aug-18 22:00N 49°49' W 002°46'713.0
2018-Aug-18 21:30N 49°47' W 002°56'613.1
2018-Aug-18 21:00N 49°43' W 003°04'712.9
2018-Aug-18 20:28N 49°39' W 003°13'713.0
2018-Aug-18 19:57N 49°36' W 003°23'613.3
2018-Aug-18 19:30N 49°33' W 003°31'712.9
2018-Aug-18 19:00N 49°30' W 003°40'812.9
2018-Aug-18 18:23N 49°27' W 003°50'613.0
2018-Aug-18 17:57N 49°24' W 003°58'613.1
2018-Aug-18 17:30N 49°21' W 004°06'913.2
2018-Aug-18 16:51N 49°17' W 004°17'513.2
2018-Aug-18 16:28N 49°14' W 004°24'813.1
2018-Aug-18 15:52N 49°10' W 004°34'612.8
2018-Aug-18 15:26N 49°07' W 004°42'612.9
2018-Aug-18 15:00N 49°04' W 004°49'712.8
2018-Aug-18 14:29N 49°01' W 004°57'613.1
2018-Aug-18 14:00N 48°58' W 005°06'713.0
2018-Aug-18 13:30N 48°55' W 005°14'612.5
2018-Aug-18 13:00N 48°52' W 005°23'712.8
2018-Aug-18 12:29N 48°48' W 005°31'1112.3
2018-Aug-18 11:37N 48°40' W 005°42'1712.5
2018-Aug-18 10:17N 48°25' W 005°52'412.7
2018-Aug-18 09:58N 48°21' W 005°55'713.0
2018-Aug-18 09:28N 48°15' W 005°59'1012.8
2018-Aug-18 08:43N 48°07' W 006°06'512.7
2018-Aug-18 08:19N 48°02' W 006°10'1713.0
2018-Aug-18 06:59N 47°47' W 006°23'713.0
2018-Aug-18 06:27N 47°41' W 006°28'613.2
2018-Aug-18 05:58N 47°36' W 006°32'51313.2
2018-Aug-16 15:12N 39°23' W 009°51'313.1
2018-Aug-16 15:00N 39°21' W 009°51'713.6
2018-Aug-16 14:30N 39°14' W 009°51'713.5
2018-Aug-16 14:00N 39°07' W 009°51'713.4
2018-Aug-16 13:30N 39°00' W 009°51'713.4
2018-Aug-16 13:00N 38°54' W 009°51'713.0
2018-Aug-16 12:30N 38°47' W 009°51'713.5
2018-Aug-16 12:00N 38°41' W 009°50'713.2
2018-Aug-16 11:30N 38°34' W 009°49'714.0
2018-Aug-16 11:00N 38°27' W 009°46'713.5
2018-Aug-16 10:30N 38°21' W 009°44'713.6
2018-Aug-16 10:00N 38°14' W 009°42'714.0
2018-Aug-16 09:31N 38°07' W 009°40'713.9
2018-Aug-16 09:00N 38°01' W 009°37'713.5
2018-Aug-16 08:30N 37°54' W 009°35'713.4
2018-Aug-16 08:00N 37°48' W 009°34'713.5
2018-Aug-16 07:30N 37°41' W 009°32'713.7
2018-Aug-16 06:58N 37°34' W 009°30'713.8
2018-Aug-16 06:29N 37°27' W 009°28'713.5
2018-Aug-16 06:00N 37°21' W 009°27'613.2
2018-Aug-16 05:30N 37°15' W 009°25'713.6
2018-Aug-16 05:00N 37°08' W 009°23'713.9
2018-Aug-16 04:30N 37°01' W 009°21'713.6
2018-Aug-16 04:00N 36°55' W 009°19'713.6
2018-Aug-16 03:28N 36°49' W 009°13'713.2
2018-Aug-16 02:58N 36°44' W 009°07'613.3
2018-Aug-16 02:30N 36°43' W 008°60'713.4
2018-Aug-16 02:00N 36°40' W 008°52'713.2
2018-Aug-16 01:30N 36°38' W 008°44'713.6
2018-Aug-16 01:00N 36°36' W 008°36'714.0
2018-Aug-16 00:30N 36°34' W 008°28'914.0
2018-Aug-15 23:54N 36°31' W 008°18'1613.9
2018-Aug-15 22:43N 36°26' W 007°59'1213.9
2018-Aug-15 21:52N 36°23' W 007°44'613.8
2018-Aug-15 21:27N 36°22' W 007°37'713.9
2018-Aug-15 20:56N 36°20' W 007°29'7613.4
2018-Aug-15 15:18N 35°57' W 005°59'413.6
2018-Aug-15 15:01N 35°57' W 005°54'26 3.3
2018-Aug-15 07:13N 36°08' W 005°25'0 0.0
2018-Aug-15 06:58N 36°08' W 005°25'0 0.0
2018-Aug-15 06:27N 36°08' W 005°25'0 0.0
2018-Aug-15 06:00N 36°08' W 005°25'0 0.0
2018-Aug-15 05:27N 36°08' W 005°25'0 0.0
2018-Aug-15 05:00N 36°08' W 005°25'0 0.0
2018-Aug-15 04:30N 36°08' W 005°25'0 0.0
2018-Aug-15 03:59N 36°08' W 005°25'0 0.0
2018-Aug-15 03:29N 36°08' W 005°25'0 0.0
2018-Aug-15 03:00N 36°08' W 005°25'0 0.0
2018-Aug-15 02:29N 36°08' W 005°25'0 0.0
2018-Aug-15 01:59N 36°08' W 005°25'0 0.0
2018-Aug-15 01:28N 36°08' W 005°25'0 0.0
2018-Aug-15 01:00N 36°08' W 005°25'0 0.0
2018-Aug-15 00:29N 36°08' W 005°25'0 0.0
2018-Aug-15 00:00N 36°08' W 005°25'1 1.9
2018-Aug-14 23:31N 36°08' W 005°25'2 3.5
2018-Aug-14 23:00N 36°07' W 005°24'4 6.5
2018-Aug-14 22:26N 36°03' W 005°23'512.5
2018-Aug-14 22:01N 35°58' W 005°26'815.7
2018-Aug-14 21:30N 35°55' W 005°35'1014.8
2018-Aug-14 20:50N 35°53' W 005°46'2115.0
2018-Aug-14 19:26N 35°44' W 006°11'1515.9
2018-Aug-14 18:30N 35°34' W 006°24'915.6
2018-Aug-14 17:56N 35°29' W 006°32'2215.7
2018-Aug-14 16:30N 35°13' W 006°52'815.4
2018-Aug-14 15:58N 35°07' W 006°59'21716.3
2018-Aug-14 02:39N 32°33' W 010°02'216.6
2018-Aug-14 02:30N 32°31' W 010°04'7816.5
2018-Aug-13 21:47N 31°30' W 011°01'516.9
2018-Aug-13 21:30N 31°26' W 011°03'917.1
2018-Aug-13 21:00N 31°18' W 011°08'917.0
2018-Aug-13 20:30N 31°11' W 011°13'917.1
2018-Aug-13 20:00N 31°04' W 011°18'1416.0
2018-Aug-13 19:09N 30°52' W 011°27'10517.1
2018-Aug-13 13:03N 29°24' W 012°31'117.5
2018-Aug-13 13:00N 29°23' W 012°32'917.3
2018-Aug-13 12:30N 29°16' W 012°37'917.1
2018-Aug-13 12:00N 29°08' W 012°42'816.9
2018-Aug-13 11:30N 29°01' W 012°47'1516.8
2018-Aug-13 10:36N 28°48' W 012°56'217.3
2018-Aug-13 10:30N 28°47' W 012°57'916.9
2018-Aug-13 09:59N 28°39' W 013°02'1316.7
2018-Aug-13 09:13N 28°29' W 013°10'417.1
2018-Aug-13 09:00N 28°26' W 013°12'917.4
2018-Aug-13 08:30N 28°18' W 013°17'817.1
2018-Aug-13 08:00N 28°11' W 013°22'1016.7
2018-Aug-13 07:25N 28°02' W 013°28'716.3
2018-Aug-13 07:00N 27°57' W 013°33'816.6
2018-Aug-13 06:30N 27°51' W 013°40'816.5
2018-Aug-13 06:00N 27°45' W 013°46'816.8
2018-Aug-13 05:30N 27°40' W 013°53'816.6
2018-Aug-13 05:00N 27°34' W 013°60'816.9
2018-Aug-13 04:30N 27°28' W 014°06'816.9
2018-Aug-13 04:00N 27°21' W 014°13'816.7
2018-Aug-13 03:30N 27°16' W 014°20'816.7
2018-Aug-13 03:00N 27°10' W 014°26'816.9
2018-Aug-13 02:30N 27°04' W 014°33'816.9
2018-Aug-13 02:00N 26°58' W 014°39'917.0
2018-Aug-13 01:30N 26°52' W 014°46'916.9
2018-Aug-13 00:59N 26°45' W 014°53'  

Dump ship's entire track history